< < Back
Terminal Aerodrome Forecast


Current Version              Previous Versions:   1  2  3  4  5  6  7  8  9  

Terminal Aerodrome Forecast

460
FTUS42 KCHS 262320
TAFSAV
TAF
KSAV 262320Z 2700/2724 15008KT P6SM SKC
     FM270300 00000KT P6SM SKC
     FM271400 10007KT P6SM FEW030=



Latest METAR

143
SAUS80 KWBC 270000
MTRSAV
METAR KSAV 262353Z 13010KT 10SM CLR 26/14 A3011 RMK AO2 SLP196 T02560144
10306 20256 55006


USA.gov is the U.S. government's official web portal to all federal, state and local government web resources and services.